Anatone, WA (99401)

7:26 PM PDT on October 01, 2014 (GMT -0700)
Montgomery Ridge Road | Change Station
CLOSE
Current Station
Personal Weather Station
Location: Anatone, WA
Elevation: 3300 ft
Nearby Weather Stations

Elev 3300 ft 46.12 °N, 117.01 °W | Updated 3 minutes ago

Clear
Clear
47.7 °F
Feels Like 45 °F
N
6.3
Wind Variable Wind from SW
Gusts 6.3 mph

Today
High -- | Low -- °F
--% Chance of Precip.
Yesterday
High -- | Low -- °F
Precip. -- in
6:46 AM 6:28 PM
First Quarter, 53% visible
Pressure 30.07 in
Visibility 10.0 miles
Clouds Clear
Windchill 45 °F
Dew Point 32 °F
Humidity 55%
Rainfall 0.00 in
Snow Depth 0 in , 0 in , 1 in
UV 0 out of 12
Pollen 5.80 out of 12
Air Quality Not available.
Flu Activity Not available.
METAR KLWS 020156Z 34003KT 10SM CLR 16/03 A3006 RMK AO2 SLP181 T01560033

More Conditions Fewer Conditions

Pressure 30.07 in
Visibility 10.0 miles
Clouds Clear
Windchill 45 °F
Dew Point 32 °F
Humidity 55%
Rainfall 0.00 in
Snow Depth 0 in , 0 in , 1 in
UV 0 out of 12
Pollen 5.80 out of 12
Air Quality Not available.
Flu Activity Not available.
METAR KLWS 020156Z 34003KT 10SM CLR 16/03 A3006 RMK AO2 SLP181 T01560033

More Conditions Fewer Conditions

10-Day Weather Forecast

Almanac

Astronomy

Oct. 01, 2014 Rise Set
Actual Time 6:46 AM PDT 6:28 PM PDT
Civil Twilight 6:16 AM PDT 6:57 PM PDT
Nautical Twilight 5:42 AM PDT 7:32 PM PDT
Astronomical Twilight 5:06 AM PDT 8:07 PM PDT
Moon 2:05 PM PDT (10/1) 11:51 PM PDT (10/1)
Length of Visible Light 12h 40m
Length of Day
11h 41m
Tomorrow will be 3m 14s shorter.
First Quarter, 53% of the Moon is Illuminated
Today
First Quarter
Oct 8
Full
Oct 15
Last Quarter
Oct 23
New
Oct 30
First Quarter

Today's Extremes

State Highs State Lows

Community

WunderPhotos

Upload Photos

1,758,142 photos uploaded!

WunderBlogs® & News

Nearby

Snow Depth

Station Depth Elevation
Sasse Ridge 0 in 4200 ft
Potato Hill 0 in 4500 ft
Rainy Pass 0 in 4780 ft
Surprise Lakes 1 in 4250 ft
Alpine Meadows 0 in 3500 ft

Earthquake Activity

City Distance Mag. Time & Date
No recent earthquake activity has been reported nearby.
Minimum magnitude displayed is 2.5.

Coastal Water Temperatures

Place Temperature
No Stations Reporting

Nearby Weather Stations